createdAt,value
2023-03-03T12:35:36.555Z,6.94
2023-03-03T12:36:36.448Z,6.91
2023-03-03T12:37:36.436Z,6.77
2023-03-03T12:38:36.424Z,7.06
2023-03-03T12:39:36.370Z,7.23
2023-03-03T12:40:36.386Z,7.45
2023-03-03T12:41:36.343Z,7.20
2023-03-03T12:42:36.310Z,6.88
2023-03-03T12:43:36.306Z,6.71
2023-03-03T12:44:36.288Z,6.59
2023-03-03T12:45:36.265Z,7.05
2023-03-03T12:46:36.250Z,7.06
2023-03-03T12:47:36.221Z,6.99
2023-03-03T12:48:36.179Z,6.92
2023-03-03T12:49:42.794Z,7.23
2023-03-03T12:50:36.244Z,7.52
2023-03-03T12:51:36.109Z,7.53
2023-03-03T12:52:36.096Z,7.98
2023-03-03T12:53:36.088Z,8.19
2023-03-03T12:54:37.330Z,8.37
2023-03-03T12:55:36.040Z,8.00
2023-03-03T12:56:36.026Z,7.50
2023-03-03T12:57:35.999Z,7.42
2023-03-03T12:58:35.991Z,7.42
2023-03-03T12:59:35.965Z,7.49
2023-03-03T13:00:36.022Z,7.85
2023-03-03T13:01:35.914Z,8.18
2023-03-03T13:02:35.909Z,8.16
2023-03-03T13:03:43.639Z,8.08
2023-03-03T13:04:35.845Z,8.01
2023-03-03T13:05:35.829Z,7.83
2023-03-03T13:06:35.830Z,8.20
2023-03-03T13:07:35.857Z,8.25
2023-03-03T13:08:35.781Z,8.00
2023-03-03T13:09:35.750Z,7.95
2023-03-03T13:10:35.742Z,7.82
2023-03-03T13:11:35.713Z,7.90
2023-03-03T13:12:35.698Z,7.86
2023-03-03T13:13:35.674Z,8.04
2023-03-03T13:14:35.641Z,8.22
2023-03-03T13:15:38.054Z,8.43
2023-03-03T13:16:41.606Z,8.15
2023-03-03T13:17:35.592Z,8.15
2023-03-03T13:18:35.580Z,8.28
2023-03-03T13:19:35.531Z,8.08
2023-03-03T13:20:35.572Z,7.89
2023-03-03T13:21:35.526Z,8.07
2023-03-03T13:22:35.505Z,8.01
2023-03-03T13:23:35.461Z,8.10
2023-03-03T13:24:35.470Z,8.18
2023-03-03T13:25:35.509Z,8.43
2023-03-03T13:26:35.400Z,8.89
2023-03-03T13:27:35.370Z,9.01
2023-03-03T13:28:35.361Z,8.65
2023-03-03T13:29:35.369Z,8.96
2023-03-03T13:30:35.357Z,8.89
2023-03-03T13:31:35.396Z,8.80
2023-03-03T13:32:35.354Z,9.39
2023-03-03T13:33:35.271Z,9.02
2023-03-03T13:34:35.243Z,8.36
2023-03-03T13:35:35.278Z,8.36
2023-03-03T13:36:35.201Z,8.70
2023-03-03T13:37:35.193Z,8.55
2023-03-03T13:38:35.184Z,8.53
2023-03-03T13:39:35.175Z,8.53
2023-03-03T13:40:35.161Z,8.99
2023-03-03T13:41:35.110Z,8.59
2023-03-03T13:42:35.106Z,8.58
2023-03-03T13:43:35.085Z,8.73
2023-03-03T13:44:35.044Z,8.53
2023-03-03T13:45:35.054Z,8.12
2023-03-03T13:46:35.053Z,8.12
2023-03-03T13:47:34.980Z,7.60
2023-03-03T13:48:35.017Z,7.28
2023-03-03T13:49:34.960Z,7.28
2023-03-03T13:50:34.947Z,7.58
2023-03-03T13:51:34.922Z,7.93
2023-03-03T13:52:34.912Z,8.19
2023-03-03T13:53:34.863Z,8.00
2023-03-03T13:54:34.851Z,8.01
2023-03-03T13:55:34.839Z,7.68
2023-03-03T13:56:34.823Z,7.64
2023-03-03T13:57:34.839Z,7.71
2023-03-03T13:58:34.794Z,7.55
2023-03-03T13:59:34.761Z,7.74
2023-03-03T14:00:36.380Z,7.55
2023-03-03T14:01:34.717Z,7.50
2023-03-03T14:02:34.695Z,7.27
2023-03-03T14:03:34.665Z,7.25
2023-03-03T14:04:34.739Z,7.27
2023-03-03T14:05:34.647Z,7.61
2023-03-03T14:06:35.493Z,7.60
2023-03-03T14:07:34.635Z,7.58
2023-03-03T14:08:34.599Z,7.55
2023-03-03T14:09:34.588Z,7.52
2023-03-03T14:10:34.556Z,7.82
2023-03-03T14:11:34.579Z,8.16
2023-03-03T14:12:34.512Z,8.16
2023-03-03T14:13:34.482Z,8.11
2023-03-03T14:14:34.527Z,8.41
2023-03-03T14:15:34.435Z,8.37
2023-03-03T14:16:34.480Z,8.30
2023-03-03T14:17:34.415Z,8.18
2023-03-03T14:18:34.415Z,8.30
2023-03-03T14:19:34.410Z,8.55
2023-03-03T14:20:34.466Z,8.63
2023-03-03T14:21:34.420Z,8.98
2023-03-03T14:22:34.316Z,9.15
2023-03-03T14:23:34.362Z,9.21
2023-03-03T14:24:34.304Z,9.33
2023-03-03T14:25:35.921Z,9.35
2023-03-03T14:26:34.289Z,8.91
2023-03-03T14:37:30.008Z,7.60
2023-03-03T14:38:29.979Z,7.85
2023-03-03T14:39:29.956Z,8.34
2023-03-03T14:40:29.976Z,8.81
2023-03-03T14:41:29.913Z,8.83
2023-03-03T14:42:29.940Z,9.04
2023-03-03T14:43:29.879Z,8.96
2023-03-03T14:44:29.870Z,9.05
2023-03-03T14:45:30.778Z,8.98
2023-03-03T14:46:29.873Z,9.02
2023-03-03T14:47:29.842Z,9.04
2023-03-03T14:48:32.337Z,9.57
2023-03-03T14:49:29.765Z,10.09
2023-03-03T14:50:29.778Z,9.93
2023-03-03T14:51:29.748Z,9.28
2023-03-03T14:52:29.761Z,8.70
2023-03-03T14:53:29.718Z,8.30
2023-03-03T14:54:29.685Z,7.93
2023-03-03T14:55:29.700Z,7.57
2023-03-03T14:56:29.672Z,7.43
2023-03-03T14:57:29.664Z,7.30
2023-03-03T14:58:29.639Z,7.15
